createdAt,value
2022-08-26T00:01:54.120Z,21.11
2022-08-26T00:04:24.856Z,21.17
2022-08-26T00:06:53.235Z,21.06
2022-08-26T00:09:21.132Z,21.12
2022-08-26T00:11:48.340Z,21.11
2022-08-26T00:14:16.709Z,21.14
2022-08-26T00:16:48.185Z,21.10
2022-08-26T00:19:21.471Z,21.12
2022-08-26T00:21:50.014Z,21.10
2022-08-26T00:24:19.023Z,21.03
2022-08-26T00:26:46.184Z,21.07
2022-08-26T00:29:13.820Z,21.00
2022-08-26T00:31:42.294Z,21.01
2022-08-26T00:34:11.332Z,21.01
2022-08-26T00:36:39.715Z,21.07
2022-08-26T00:39:08.488Z,21.09
2022-08-26T00:41:39.171Z,21.08
2022-08-26T00:44:06.859Z,20.91
2022-08-26T00:46:48.559Z,21.06
2022-08-26T00:49:29.666Z,21.08
2022-08-26T00:51:59.959Z,21.09
2022-08-26T00:54:30.958Z,20.96
2022-08-26T00:57:16.365Z,20.92
2022-08-26T00:59:49.500Z,20.98
2022-08-26T01:02:20.172Z,20.90
2022-08-26T01:04:54.323Z,20.96
2022-08-26T01:07:30.343Z,21.02
2022-08-26T01:10:01.468Z,20.93
2022-08-26T01:12:33.178Z,20.97
2022-08-26T01:15:02.068Z,20.92
2022-08-26T01:17:29.007Z,21.02
2022-08-26T01:20:11.112Z,20.95
2022-08-26T01:22:46.529Z,20.98
2022-08-26T01:25:14.795Z,20.89
2022-08-26T01:27:42.507Z,20.94
2022-08-26T01:30:12.712Z,20.79
2022-08-26T01:32:40.804Z,20.83
2022-08-26T01:35:09.207Z,20.87
2022-08-26T01:37:40.476Z,20.87
2022-08-26T01:40:13.823Z,20.88
2022-08-26T01:42:42.323Z,20.80
2022-08-26T01:45:23.151Z,20.86
2022-08-26T01:47:57.185Z,20.81
2022-08-26T01:50:32.534Z,20.86
2022-08-26T01:53:06.568Z,20.75
2022-08-26T01:55:36.807Z,20.74
2022-08-26T01:58:09.804Z,20.76
2022-08-26T02:00:38.318Z,20.77
2022-08-26T02:03:18.997Z,20.72
2022-08-26T02:05:54.261Z,20.82
2022-08-26T02:08:29.228Z,20.74
2022-08-26T02:10:56.548Z,20.75
2022-08-26T02:13:27.244Z,20.77
2022-08-26T02:15:55.619Z,20.75
2022-08-26T02:18:23.829Z,20.84
2022-08-26T02:20:54.771Z,20.73
2022-08-26T02:23:24.483Z,20.69
2022-08-26T02:26:02.036Z,20.80
2022-08-26T02:28:36.653Z,20.78
2022-08-26T02:31:03.968Z,20.75
2022-08-26T02:33:32.052Z,20.66
2022-08-26T02:35:59.097Z,20.68
2022-08-26T02:38:26.072Z,20.60
2022-08-26T02:40:53.012Z,20.60
2022-08-26T02:43:31.212Z,20.64
2022-08-26T02:46:01.957Z,20.69
2022-08-26T02:48:30.335Z,20.62
2022-08-26T02:51:00.497Z,20.60
2022-08-26T02:53:28.122Z,20.57
2022-08-26T02:55:58.903Z,20.48
2022-08-26T02:58:26.755Z,20.47
2022-08-26T03:00:53.875Z,20.43
2022-08-26T03:03:23.693Z,20.49
2022-08-26T03:05:51.325Z,20.57
2022-08-26T03:08:18.908Z,20.46
2022-08-26T03:10:47.535Z,20.49
2022-08-26T03:13:15.561Z,20.40
2022-08-26T03:15:42.580Z,20.49
2022-08-26T03:18:10.927Z,20.49
2022-08-26T03:20:38.612Z,20.41
2022-08-26T03:23:05.533Z,20.44
2022-08-26T03:25:34.015Z,20.40
2022-08-26T03:28:02.185Z,20.38
2022-08-26T03:30:44.797Z,20.39
2022-08-26T03:33:13.653Z,20.47
2022-08-26T03:35:43.412Z,20.43
2022-08-26T03:38:11.204Z,20.47
2022-08-26T03:40:38.933Z,20.47
2022-08-26T03:43:09.583Z,20.33
2022-08-26T03:45:37.642Z,20.49
2022-08-26T03:48:05.867Z,20.46
2022-08-26T03:50:35.685Z,20.47
2022-08-26T03:53:03.953Z,20.52
2022-08-26T03:55:33.307Z,20.47
2022-08-26T03:58:01.991Z,20.52
2022-08-26T04:00:29.778Z,20.52
2022-08-26T04:02:57.241Z,20.41
2022-08-26T04:05:25.223Z,20.42
2022-08-26T04:07:52.893Z,20.39
2022-08-26T04:10:29.011Z,20.43
2022-08-26T04:12:59.691Z,20.45
2022-08-26T04:15:27.432Z,20.47
2022-08-26T04:17:54.548Z,20.46
2022-08-26T04:20:23.147Z,20.47
2022-08-26T04:22:50.940Z,20.46
2022-08-26T04:25:18.600Z,20.51
2022-08-26T04:27:48.232Z,20.45
2022-08-26T04:30:15.785Z,20.31
2022-08-26T04:32:43.679Z,20.30
2022-08-26T04:35:10.619Z,20.32
2022-08-26T04:37:37.635Z,20.35
2022-08-26T04:40:06.492Z,20.26
2022-08-26T04:42:33.720Z,20.36
2022-08-26T04:45:01.838Z,20.38
2022-08-26T04:47:33.018Z,20.39
2022-08-26T04:50:01.984Z,20.36
2022-08-26T04:52:29.203Z,20.27
2022-08-26T04:54:58.012Z,20.25
2022-08-26T04:57:25.094Z,20.33
2022-08-26T04:59:53.076Z,20.34
2022-08-26T05:02:20.259Z,20.32
2022-08-26T05:04:47.203Z,20.22
2022-08-26T05:07:14.112Z,20.32
2022-08-26T05:09:45.149Z,20.33
2022-08-26T05:12:12.091Z,20.31
2022-08-26T05:14:41.333Z,20.28
2022-08-26T05:17:09.168Z,20.30
2022-08-26T05:19:42.811Z,20.25
2022-08-26T05:22:10.125Z,20.27
2022-08-26T05:24:40.777Z,20.33
2022-08-26T05:27:11.714Z,20.31
2022-08-26T05:29:39.410Z,20.29
2022-08-26T05:32:07.442Z,20.30
2022-08-26T05:34:34.421Z,20.16
2022-08-26T05:37:02.023Z,20.16
2022-08-26T05:39:29.293Z,20.20
2022-08-26T05:41:56.344Z,20.23
2022-08-26T05:44:23.570Z,20.29
2022-08-26T05:46:51.661Z,20.21
2022-08-26T05:49:18.701Z,20.27
2022-08-26T05:51:47.936Z,20.16
2022-08-26T05:54:21.826Z,20.16
2022-08-26T05:56:50.776Z,20.21
2022-08-26T05:59:23.906Z,20.10
2022-08-26T06:01:52.770Z,20.14
2022-08-26T06:04:20.088Z,20.16
2022-08-26T06:06:47.516Z,20.17
2022-08-26T06:09:14.980Z,20.24
2022-08-26T06:11:45.576Z,20.28
2022-08-26T06:14:12.720Z,20.24
2022-08-26T06:16:43.740Z,20.16
2022-08-26T06:19:15.338Z,20.22
2022-08-26T06:21:46.326Z,20.28
2022-08-26T06:24:33.153Z,20.28
2022-08-26T06:27:09.504Z,20.36
2022-08-26T06:29:38.492Z,20.34
2022-08-26T06:32:06.709Z,20.29
2022-08-26T06:34:34.056Z,20.26
2022-08-26T06:37:02.778Z,20.30
2022-08-26T06:39:31.897Z,20.27
2022-08-26T06:42:03.153Z,20.28
2022-08-26T06:44:33.100Z,20.33
2022-08-26T06:47:00.011Z,20.34
2022-08-26T06:49:27.788Z,20.33
2022-08-26T06:51:59.572Z,20.39
2022-08-26T06:54:30.148Z,20.38
2022-08-26T06:56:57.448Z,20.38
2022-08-26T06:59:25.270Z,20.42
2022-08-26T07:01:52.608Z,20.40
2022-08-26T07:04:22.431Z,20.39
2022-08-26T07:06:52.978Z,20.50
2022-08-26T07:09:22.829Z,20.51
2022-08-26T07:11:51.188Z,20.38
2022-08-26T07:14:21.208Z,20.42
2022-08-26T07:16:50.334Z,20.53
2022-08-26T07:19:29.083Z,20.48
2022-08-26T07:22:02.042Z,20.40
2022-08-26T07:24:29.649Z,20.43
2022-08-26T07:27:07.120Z,20.49
2022-08-26T07:29:37.520Z,20.46
2022-08-26T07:32:05.556Z,20.37
2022-08-26T07:34:33.456Z,20.41
2022-08-26T07:37:01.022Z,20.42
2022-08-26T07:39:31.617Z,20.47
2022-08-26T07:42:01.259Z,20.44
2022-08-26T07:44:28.448Z,20.52
2022-08-26T07:46:55.616Z,20.51
2022-08-26T07:49:26.710Z,20.45
2022-08-26T07:51:55.888Z,20.42
2022-08-26T07:54:27.144Z,20.53
2022-08-26T07:56:55.928Z,20.51
2022-08-26T07:59:23.844Z,20.52
2022-08-26T08:01:51.171Z,20.53
2022-08-26T08:04:22.988Z,20.59
2022-08-26T08:06:53.857Z,20.46
2022-08-26T08:09:20.886Z,20.57
2022-08-26T08:11:50.019Z,20.56
2022-08-26T08:14:18.716Z,20.44
2022-08-26T08:16:53.315Z,20.51
2022-08-26T08:19:23.070Z,20.47
2022-08-26T08:21:51.448Z,20.49
2022-08-26T08:24:19.294Z,20.36
2022-08-26T08:26:46.271Z,20.44
2022-08-26T08:29:14.155Z,20.61
2022-08-26T08:31:58.402Z,20.57
2022-08-26T08:34:28.399Z,20.49
2022-08-26T08:36:57.235Z,20.46
2022-08-26T08:39:26.175Z,20.48
2022-08-26T08:42:27.680Z,20.39
2022-08-26T08:44:59.736Z,20.42
2022-08-26T08:47:43.001Z,20.51
2022-08-26T08:50:35.067Z,20.47
2022-08-26T08:53:13.519Z,20.52
2022-08-26T08:56:03.514Z,20.56
2022-08-26T08:59:01.648Z,20.55
2022-08-26T09:02:10.860Z,20.57
2022-08-26T09:05:00.767Z,20.57
2022-08-26T09:08:03.400Z,20.53
2022-08-26T09:10:37.623Z,20.56
2022-08-26T09:13:09.455Z,20.57
2022-08-26T09:16:07.404Z,20.62
2022-08-26T09:18:57.252Z,20.60
2022-08-26T09:21:25.474Z,20.45
2022-08-26T09:23:56.754Z,20.50
2022-08-26T09:26:30.563Z,20.51
2022-08-26T09:29:22.395Z,20.68
2022-08-26T09:31:49.637Z,20.59
2022-08-26T09:34:21.076Z,20.70
2022-08-26T09:36:56.033Z,20.71
2022-08-26T09:39:30.835Z,20.76
2022-08-26T09:42:23.134Z,20.72
2022-08-26T09:45:13.464Z,20.86
2022-08-26T09:47:54.801Z,20.74
2022-08-26T09:50:53.885Z,20.90
2022-08-26T09:53:30.339Z,20.91
2022-08-26T09:56:27.668Z,20.78
2022-08-26T09:58:56.885Z,20.77
2022-08-26T10:01:23.845Z,20.80
2022-08-26T10:03:51.691Z,20.67
2022-08-26T10:06:20.940Z,20.72
2022-08-26T10:09:03.612Z,20.79
2022-08-26T10:11:58.667Z,20.81
2022-08-26T10:14:33.403Z,20.89
2022-08-26T10:17:17.054Z,20.77
2022-08-26T10:19:56.592Z,20.74
2022-08-26T10:22:48.104Z,20.70
2022-08-26T10:25:25.943Z,20.83
2022-08-26T10:28:41.174Z,20.86
2022-08-26T10:31:27.466Z,20.93
2022-08-26T10:33:59.984Z,20.95
2022-08-26T10:37:13.560Z,20.96
2022-08-26T10:40:07.744Z,21.04
2022-08-26T10:42:49.926Z,21.14
2022-08-26T10:45:25.139Z,21.09
2022-08-26T10:48:10.344Z,21.19
2022-08-26T10:50:43.585Z,21.05
2022-08-26T10:53:27.461Z,21.07
2022-08-26T10:56:18.799Z,21.12
2022-08-26T10:59:40.374Z,21.13
2022-08-26T11:02:46.968Z,21.28
2022-08-26T11:05:23.358Z,21.17
2022-08-26T11:07:54.833Z,21.28
2022-08-26T11:10:22.501Z,21.21
2022-08-26T11:13:04.666Z,21.33
2022-08-26T11:15:31.780Z,21.33
2022-08-26T11:18:04.244Z,21.39
2022-08-26T11:20:41.560Z,21.50
2022-08-26T11:23:22.296Z,21.58
2022-08-26T11:26:08.720Z,21.72
2022-08-26T11:28:50.859Z,21.86
2022-08-26T11:31:19.075Z,21.92
2022-08-26T11:33:59.085Z,21.72
2022-08-26T11:36:42.666Z,21.77
2022-08-26T11:39:30.231Z,21.66
2022-08-26T11:42:15.144Z,21.63
2022-08-26T11:44:49.397Z,21.60
2022-08-26T11:47:27.224Z,21.57
2022-08-26T11:50:15.687Z,21.43
2022-08-26T11:53:06.385Z,21.41
2022-08-26T11:55:41.724Z,21.63
2022-08-26T11:58:13.458Z,21.62
2022-08-26T12:00:59.891Z,21.74
2022-08-26T12:03:45.212Z,21.70
2022-08-26T12:06:31.329Z,21.86
2022-08-26T12:09:02.987Z,21.83
2022-08-26T12:11:35.399Z,21.92
2022-08-26T12:14:16.068Z,21.85
2022-08-26T12:16:43.476Z,21.86
2022-08-26T12:19:33.262Z,21.87
2022-08-26T12:22:22.784Z,21.89
2022-08-26T12:24:54.744Z,21.76
2022-08-26T12:27:28.551Z,21.78
2022-08-26T12:30:14.204Z,21.95
2022-08-26T12:32:56.548Z,22.03
2022-08-26T12:35:25.919Z,22.16
2022-08-26T12:37:54.906Z,22.18
2022-08-26T12:40:50.379Z,21.86
2022-08-26T12:43:44.938Z,22.03
2022-08-26T12:46:25.817Z,21.98
2022-08-26T12:48:52.943Z,21.95
2022-08-26T12:51:28.880Z,21.94
2022-08-26T12:53:56.406Z,21.87
2022-08-26T12:56:38.959Z,21.82
2022-08-26T12:59:24.285Z,21.64
2022-08-26T13:01:52.734Z,21.63
2022-08-26T13:04:42.559Z,21.52
2022-08-26T13:07:36.934Z,21.58
2022-08-26T13:10:04.880Z,21.75
2022-08-26T13:12:37.245Z,21.66
2022-08-26T13:15:06.257Z,21.62
2022-08-26T13:17:35.722Z,21.73
2022-08-26T13:20:04.460Z,21.50
2022-08-26T13:22:33.003Z,21.66
2022-08-26T13:25:00.339Z,21.62
2022-08-26T13:27:28.473Z,21.87
2022-08-26T13:29:57.543Z,21.92
2022-08-26T13:32:27.222Z,21.88
2022-08-26T13:34:56.705Z,22.00
2022-08-26T13:37:24.324Z,22.03
2022-08-26T13:40:04.662Z,22.02
2022-08-26T13:42:31.663Z,22.09
2022-08-26T13:44:59.634Z,22.05
2022-08-26T13:47:27.158Z,22.10
2022-08-26T13:49:56.170Z,22.16
2022-08-26T13:52:30.757Z,22.28
2022-08-26T13:55:01.764Z,22.27
2022-08-26T13:57:30.455Z,22.11
2022-08-26T14:00:01.724Z,22.03
2022-08-26T14:02:28.936Z,21.93
2022-08-26T14:04:56.321Z,21.83
2022-08-26T14:07:23.691Z,21.82
2022-08-26T14:09:50.953Z,21.65
2022-08-26T14:12:18.030Z,21.58
2022-08-26T14:14:45.047Z,21.56
2022-08-26T14:17:21.188Z,21.63
2022-08-26T14:19:50.159Z,21.55
2022-08-26T14:22:19.976Z,21.61
2022-08-26T14:24:47.310Z,21.52
2022-08-26T14:27:14.719Z,21.55
2022-08-26T14:29:42.328Z,21.51
2022-08-26T14:32:17.168Z,21.46
2022-08-26T14:34:47.916Z,21.62
2022-08-26T14:37:15.357Z,21.57
2022-08-26T14:39:42.520Z,21.50
2022-08-26T14:42:10.090Z,21.56
2022-08-26T14:44:37.870Z,21.59
2022-08-26T14:47:06.560Z,21.55
2022-08-26T14:49:34.612Z,21.58
2022-08-26T14:52:01.737Z,21.45
2022-08-26T14:54:29.424Z,21.55
2022-08-26T14:57:01.637Z,21.41
2022-08-26T14:59:35.846Z,21.47
2022-08-26T15:02:04.778Z,21.43
2022-08-26T15:04:32.281Z,21.60
2022-08-26T15:07:00.967Z,21.59
2022-08-26T15:09:32.100Z,21.65
2022-08-26T15:11:59.462Z,21.63
2022-08-26T15:14:32.345Z,21.72
2022-08-26T15:17:00.087Z,21.65
2022-08-26T15:19:27.723Z,21.68
2022-08-26T15:21:56.148Z,21.69
2022-08-26T15:24:25.755Z,21.67
2022-08-26T15:26:53.356Z,21.54
2022-08-26T15:29:21.163Z,21.65
2022-08-26T15:31:49.160Z,21.65
2022-08-26T15:34:17.258Z,21.71
2022-08-26T15:36:46.408Z,21.67
2022-08-26T15:39:16.115Z,21.68
2022-08-26T15:41:43.100Z,21.52
2022-08-26T15:44:11.042Z,21.61
2022-08-26T15:46:39.051Z,21.45
2022-08-26T15:49:06.885Z,21.31
2022-08-26T15:51:45.138Z,21.38
2022-08-26T15:54:14.026Z,21.23
2022-08-26T15:56:41.025Z,21.47
2022-08-26T15:59:11.392Z,21.38
2022-08-26T16:01:38.527Z,21.36
2022-08-26T16:04:06.337Z,21.30
2022-08-26T16:06:37.538Z,21.33
2022-08-26T16:09:06.040Z,21.25
2022-08-26T16:11:34.479Z,21.10
2022-08-26T16:14:04.464Z,21.20
2022-08-26T16:16:32.157Z,21.20
2022-08-26T16:18:59.896Z,21.17
2022-08-26T16:21:28.528Z,21.03
2022-08-26T16:23:57.163Z,21.04
2022-08-26T16:26:32.363Z,20.90
2022-08-26T16:29:02.438Z,20.92
2022-08-26T16:31:29.594Z,20.96
2022-08-26T16:33:56.626Z,20.88
2022-08-26T16:36:23.550Z,20.74
2022-08-26T16:38:55.153Z,20.71
2022-08-26T16:41:28.442Z,20.74
2022-08-26T16:43:55.822Z,20.73
2022-08-26T16:46:25.663Z,20.63
2022-08-26T16:48:55.187Z,20.55
2022-08-26T16:51:24.650Z,20.55
2022-08-26T16:53:53.536Z,20.69
2022-08-26T16:56:27.727Z,20.70
2022-08-26T16:59:02.660Z,20.66
2022-08-26T17:01:29.768Z,20.62
2022-08-26T17:03:57.036Z,20.58
2022-08-26T17:06:23.967Z,20.41
2022-08-26T17:08:50.884Z,20.50
2022-08-26T17:11:18.559Z,20.53
2022-08-26T17:13:46.167Z,20.50
2022-08-26T17:16:13.710Z,20.53
2022-08-26T17:18:40.759Z,20.41
2022-08-26T17:21:11.736Z,20.42
2022-08-26T17:23:40.841Z,20.29
2022-08-26T17:26:09.167Z,20.36
2022-08-26T17:28:36.427Z,20.21
2022-08-26T17:31:04.676Z,20.32
2022-08-26T17:33:31.987Z,20.27
2022-08-26T17:35:59.426Z,20.30
2022-08-26T17:38:29.103Z,20.15
2022-08-26T17:40:57.606Z,20.15
2022-08-26T17:43:26.655Z,20.24
2022-08-26T17:46:06.690Z,20.24
2022-08-26T17:48:35.676Z,20.13
2022-08-26T17:51:12.460Z,20.19
2022-08-26T17:53:41.235Z,20.11
2022-08-26T17:56:12.180Z,20.01
2022-08-26T17:58:41.520Z,19.93
2022-08-26T18:01:19.100Z,19.98
2022-08-26T18:03:46.166Z,19.92
2022-08-26T18:06:14.563Z,19.97
2022-08-26T18:08:42.049Z,19.91
2022-08-26T18:11:12.057Z,19.73
2022-08-26T18:13:47.295Z,19.80
2022-08-26T18:16:17.262Z,19.72
2022-08-26T18:18:44.579Z,19.77
2022-08-26T18:21:18.424Z,19.65
2022-08-26T18:23:47.345Z,19.73
2022-08-26T18:26:23.916Z,19.69
2022-08-26T18:28:51.143Z,19.68
2022-08-26T18:31:18.602Z,19.65
2022-08-26T18:33:46.422Z,19.52
2022-08-26T18:36:21.895Z,19.52
2022-08-26T18:38:51.133Z,19.57
2022-08-26T18:41:23.812Z,19.46
2022-08-26T18:43:53.124Z,19.52
2022-08-26T18:46:23.016Z,19.43
2022-08-26T18:48:50.967Z,19.50
2022-08-26T18:51:32.321Z,19.44
2022-08-26T18:54:02.983Z,19.48
2022-08-26T18:56:30.140Z,19.43
2022-08-26T18:58:58.881Z,19.36
2022-08-26T19:01:27.646Z,19.40
2022-08-26T19:03:56.199Z,19.37
2022-08-26T19:06:25.100Z,19.40
2022-08-26T19:08:53.277Z,19.41
2022-08-26T19:11:32.419Z,19.32
2022-08-26T19:14:08.587Z,19.32
2022-08-26T19:16:37.413Z,19.32
2022-08-26T19:19:05.343Z,19.26
2022-08-26T19:21:34.162Z,19.22
2022-08-26T19:24:05.260Z,19.17
2022-08-26T19:26:33.060Z,19.21
2022-08-26T19:29:00.609Z,19.22
2022-08-26T19:31:29.023Z,19.18
2022-08-26T19:33:57.847Z,19.13
2022-08-26T19:36:26.928Z,19.10
2022-08-26T19:38:56.415Z,19.08
2022-08-26T19:41:36.839Z,19.08
2022-08-26T19:44:13.134Z,19.00
2022-08-26T19:46:41.646Z,18.96
2022-08-26T19:49:08.623Z,18.88
2022-08-26T19:51:36.670Z,18.81
2022-08-26T19:54:04.492Z,18.84
2022-08-26T19:56:32.092Z,18.78
2022-08-26T19:58:59.051Z,18.80
2022-08-26T20:01:26.654Z,18.74
2022-08-26T20:06:20.961Z,18.61
2022-08-26T20:08:50.743Z,18.61
2022-08-26T20:11:19.344Z,18.61
2022-08-26T20:13:47.688Z,18.60
2022-08-26T20:16:15.874Z,18.59
2022-08-26T20:19:17.049Z,18.60
2022-08-26T20:21:44.039Z,18.58
2022-08-26T20:24:16.201Z,18.53
2022-08-26T20:26:44.632Z,18.48
2022-08-26T20:29:16.388Z,18.51
2022-08-26T20:31:44.639Z,18.49
2022-08-26T20:34:14.323Z,18.46
2022-08-26T20:36:42.406Z,18.50
2022-08-26T20:39:10.776Z,18.49
2022-08-26T20:41:38.837Z,18.44
2022-08-26T20:44:07.085Z,18.45
2022-08-26T20:46:37.392Z,18.46
2022-08-26T20:49:06.049Z,18.46
2022-08-26T20:51:37.171Z,18.55
2022-08-26T20:54:06.899Z,18.48
2022-08-26T20:56:34.404Z,18.48
2022-08-26T20:59:03.356Z,18.55
2022-08-26T21:01:34.631Z,18.50
2022-08-26T21:04:07.252Z,18.49
2022-08-26T21:06:35.371Z,18.58
2022-08-26T21:09:05.367Z,18.54
2022-08-26T21:11:33.612Z,18.44
2022-08-26T21:14:06.758Z,18.42
2022-08-26T21:16:36.479Z,18.44
2022-08-26T21:19:10.575Z,18.43
2022-08-26T21:21:37.995Z,18.42
2022-08-26T21:24:05.373Z,18.40
2022-08-26T21:26:32.934Z,18.36
2022-08-26T21:29:01.640Z,18.37
2022-08-26T21:31:29.713Z,18.31
2022-08-26T21:33:56.752Z,18.33
2022-08-26T21:36:24.315Z,18.34
2022-08-26T21:38:51.232Z,18.37
2022-08-26T21:41:21.987Z,18.36
2022-08-26T21:43:50.990Z,18.34
2022-08-26T21:46:23.775Z,18.34
2022-08-26T21:49:03.788Z,18.31
2022-08-26T21:51:37.704Z,18.29
2022-08-26T21:54:10.818Z,18.28
2022-08-26T21:56:44.447Z,18.29
2022-08-26T21:59:14.369Z,18.14
2022-08-26T22:01:41.484Z,18.22
2022-08-26T22:04:10.092Z,18.18
2022-08-26T22:06:47.640Z,18.19
2022-08-26T22:09:18.996Z,18.20
2022-08-26T22:11:47.236Z,18.17
2022-08-26T22:14:16.021Z,18.14
2022-08-26T22:16:50.074Z,18.12
2022-08-26T22:19:19.788Z,18.08
2022-08-26T22:21:51.246Z,18.12
2022-08-26T22:24:20.815Z,18.07
2022-08-26T22:26:49.239Z,18.09
2022-08-26T22:29:16.794Z,18.02
2022-08-26T22:31:43.795Z,18.00
2022-08-26T22:34:19.436Z,18.06
2022-08-26T22:36:49.182Z,18.04
2022-08-26T22:39:20.768Z,18.02
2022-08-26T22:41:48.676Z,17.98
2022-08-26T22:44:17.307Z,18.03
2022-08-26T22:46:46.617Z,18.02
2022-08-26T22:49:16.309Z,17.96
2022-08-26T22:51:44.839Z,17.98
2022-08-26T22:54:12.070Z,18.02
2022-08-26T22:56:40.039Z,18.01
2022-08-26T22:59:09.119Z,17.95
2022-08-26T23:01:40.712Z,17.97
2022-08-26T23:04:08.499Z,17.96
2022-08-26T23:06:41.188Z,17.96
2022-08-26T23:09:10.152Z,17.98
2022-08-26T23:11:39.743Z,17.93
2022-08-26T23:14:09.376Z,17.96
2022-08-26T23:16:39.576Z,17.94
2022-08-26T23:19:09.462Z,17.94
2022-08-26T23:21:36.657Z,17.92
2022-08-26T23:24:05.443Z,17.94
2022-08-26T23:26:33.280Z,17.92
2022-08-26T23:29:01.245Z,17.92
2022-08-26T23:31:28.204Z,17.88
2022-08-26T23:34:14.026Z,17.87
2022-08-26T23:36:43.079Z,17.85
2022-08-26T23:39:12.797Z,17.85
2022-08-26T23:41:39.892Z,17.85
2022-08-26T23:44:07.493Z,17.81
2022-08-26T23:46:35.765Z,17.84
2022-08-26T23:49:03.944Z,17.82
2022-08-26T23:51:49.290Z,17.87
2022-08-26T23:54:16.271Z,17.81
2022-08-26T23:56:43.864Z,17.87
2022-08-26T23:59:10.771Z,17.82
